Time;durP1;ratioP1;P1;durP2;ratioP2;P2;SDS_P1;SDS_P2;PMS_P1;PMS_P2;Temp;Humidity;BMP_temperature;BMP_pressure;BME280_temperature;BME280_humidity;BME280_pressure;Samples;Min_cycle;Max_cycle;Signal;HPM_P1;HPM_P2
2022/09/22 00:01:19;;;;;;;;;;;;;;;;;;5031872;28;20379;-62
2022/09/22 00:03:47;;;;;;;;;;;;;;;;;;5015110;28;19909;-62
2022/09/22 00:06:13;;;;;;;;;;;;;;;;;;5030921;28;19909;-61
2022/09/22 00:08:39;;;;;;;;;;;;;;;;;;5032361;28;20014;-63
2022/09/22 00:11:05;;;;;;;;;;;;;;;;;;5031388;28;19959;-62
2022/09/22 00:13:30;;;;;;;;;;;;;;;;;;5032833;28;19913;-62
2022/09/22 00:15:56;;;;;;;;;;;;;;;;;;5033318;28;19954;-62
2022/09/22 00:18:22;;;;;;;;;;;;;;;;;;5032363;28;19921;-63
2022/09/22 00:20:48;;;;;;;;;;;;;;;;;;5030670;28;20051;-62
2022/09/22 00:23:14;;;;;;;;;;;;;;;;;;5032702;28;20427;-62
2022/09/22 00:25:40;;;;;;;;;;;;;;;;;;5032175;28;19955;-62
2022/09/22 00:28:06;;;;;;;;;;;;;;;;;;5031712;28;19917;-62
2022/09/22 00:30:32;;;;;;;;;;;;;;;;;;5032163;28;20291;-62
2022/09/22 00:32:58;;;;;;;;;;;;;;;;;;5032417;28;20369;-62
2022/09/22 00:35:24;;;;;;;;;;;;;;;;;;5031441;28;19916;-62
2022/09/22 00:37:50;;;;;;;;;;;;;;;;;;5030380;28;19967;-62
2022/09/22 00:40:16;;;;;;;;;;;;;;;;;;5030865;28;20393;-62
2022/09/22 00:42:42;;;;;;;;;;;;;;;;;;5032109;28;19963;-62
2022/09/22 00:45:08;;;;;;;;;;;;;;;;;;5030756;28;20441;-62
2022/09/22 00:47:34;;;;;;;;;;;;;;;;;;5031535;28;19953;-62
2022/09/22 00:50:00;;;;;;;;;;;;;;;;;;5031200;28;20379;-63
2022/09/22 00:52:26;;;;;;;;;;;;;;;;;;5031512;28;19951;-61
2022/09/22 00:54:52;;;;;;;;;;;;;;;;;;5026465;28;19909;-61
2022/09/22 00:57:18;;;;;;;;;;;;;;;;;;5033160;28;19952;-62
2022/09/22 00:59:44;;;;;;;;;;;;;;;;;;5031359;28;20350;-61
2022/09/22 01:02:10;;;;;;;;;;;;;;;;;;5031380;28;20013;-62
2022/09/22 01:04:36;;;;;;;;;;;;;;;;;;5030682;28;19917;-62
2022/09/22 01:07:01;;;;;;;;;;;;;;;;;;5031402;28;20149;-62
2022/09/22 01:09:27;;;;;;;;;;;;;;;;;;5030080;28;19919;-62
2022/09/22 01:11:53;;;;;;;;;;;;;;;;;;5031576;28;19905;-62
2022/09/22 01:14:19;;;;;;;;;;;;;;;;;;5029429;28;19909;-62
2022/09/22 01:16:45;;;;;;;;;;;;;;;;;;5020060;28;20368;-62
2022/09/22 01:19:11;;;;;;;;;;;;;;;;;;5030958;28;19961;-62
2022/09/22 01:21:37;;;;;;;;;;;;;;;;;;5031740;28;19948;-61
2022/09/22 01:24:03;;;;;;;;;;;;;;;;;;5012662;28;20291;-62
2022/09/22 01:26:29;;;;;;;;;;;;;;;;;;5029679;28;19908;-62
2022/09/22 01:28:55;;;;;;;;;;;;;;;;;;5031877;28;20280;-62
2022/09/22 01:31:20;;;;;;;;;;;;;;;;;;5031715;28;20387;-62
2022/09/22 01:33:46;;;;;;;;;;;;;;;;;;5026851;28;19936;-62
2022/09/22 01:36:12;;;;;;;;;;;;;;;;;;5023429;28;20014;-62
2022/09/22 01:38:38;;;;;;;;;;;;;;;;;;5031890;28;19979;-63
2022/09/22 01:41:04;;;;;;;;;;;;;;;;;;5030184;28;19905;-62
2022/09/22 01:43:30;;;;;;;;;;;;;;;;;;5030387;28;19904;-62
2022/09/22 01:45:56;;;;;;;;;;;;;;;;;;5031527;28;19920;-62
2022/09/22 01:48:22;;;;;;;;;;;;;;;;;;5020598;28;20000;-61
2022/09/22 01:50:48;;;;;;;;;;;;;;;;;;5031014;28;20364;-61
2022/09/22 01:53:13;;;;;;;;;;;;;;;;;;5031028;28;19913;-62
2022/09/22 01:55:39;;;;;;;;;;;;;;;;;;5027377;28;20039;-62
2022/09/22 01:58:05;;;;;;;;;;;;;;;;;;5025175;28;19955;-62
2022/09/22 02:00:31;;;;;;;;;;;;;;;;;;5030311;28;19955;-62
2022/09/22 02:02:57;;;;;;;;;;;;;;;;;;5030825;28;19905;-62
2022/09/22 02:05:23;;;;;;;;;;;;;;;;;;5030377;28;19931;-60
2022/09/22 02:07:49;;;;;;;;;;;;;;;;;;5030949;28;19936;-62
2022/09/22 02:10:16;;;;;;;;;;;;;;;;;;5030091;28;19917;-62
2022/09/22 02:12:42;;;;;;;;;;;;;;;;;;5030167;28;19959;-62
2022/09/22 02:15:58;;;;;;;;;;;;;;;;;;5029746;28;20327;-62
2022/09/22 02:17:54;;;;;;;;;;;;;;;;;;5022514;28;19924;-62
2022/09/22 02:20:20;;;;;;;;;;;;;;;;;;5029713;28;19921;-60
2022/09/22 02:22:46;;;;;;;;;;;;;;;;;;5030612;28;20420;-62
2022/09/22 02:25:13;;;;;;;;;;;;;;;;;;5031649;28;20300;-62
2022/09/22 02:27:39;;;;;;;;;;;;;;;;;;5017208;28;19912;-62
2022/09/22 02:30:05;;;;;;;;;;;;;;;;;;5034488;28;20364;-62
2022/09/22 02:32:30;;;;;;;;;;;;;;;;;;5015080;28;19936;-62
2022/09/22 02:34:56;;;;;;;;;;;;;;;;;;5031525;28;20008;-62
2022/09/22 02:37:22;;;;;;;;;;;;;;;;;;5033760;28;20003;-62
2022/09/22 02:39:48;;;;;;;;;;;;;;;;;;5034051;28;19909;-62
2022/09/22 02:42:14;;;;;;;;;;;;;;;;;;5034092;28;19964;-61
2022/09/22 02:44:40;;;;;;;;;;;;;;;;;;5033971;28;19909;-62
2022/09/22 02:47:06;;;;;;;;;;;;;;;;;;5031703;28;19913;-62
2022/09/22 02:49:32;;;;;;;;;;;;;;;;;;5033945;28;20346;-63
2022/09/22 02:51:58;;;;;;;;;;;;;;;;;;5032569;28;19913;-62
2022/09/22 02:54:24;;;;;;;;;;;;;;;;;;5033906;28;19948;-62
2022/09/22 02:56:49;;;;;;;;;;;;;;;;;;5029871;28;19956;-62
2022/09/22 02:59:15;;;;;;;;;;;;;;;;;;5032908;28;19909;-62
2022/09/22 03:01:41;;;;;;;;;;;;;;;;;;5033492;28;19956;-62
2022/09/22 03:04:07;;;;;;;;;;;;;;;;;;5034277;28;19947;-62
2022/09/22 03:06:33;;;;;;;;;;;;;;;;;;5031813;28;20384;-62
2022/09/22 03:08:59;;;;;;;;;;;;;;;;;;5032611;28;19924;-62
2022/09/22 03:11:26;;;;;;;;;;;;;;;;;;5033289;28;19948;-62
2022/09/22 03:13:52;;;;;;;;;;;;;;;;;;5034101;28;19909;-62
2022/09/22 03:16:17;;;;;;;;;;;;;;;;;;5033534;28;19936;-62
2022/09/22 03:18:43;;;;;;;;;;;;;;;;;;5032320;28;19976;-62
2022/09/22 03:21:10;;;;;;;;;;;;;;;;;;5034045;28;19911;-62
2022/09/22 03:23:36;;;;;;;;;;;;;;;;;;5033799;28;19990;-62
2022/09/22 03:26:02;;;;;;;;;;;;;;;;;;5032395;28;19948;-61
2022/09/22 03:28:28;;;;;;;;;;;;;;;;;;5033032;28;19963;-63
2022/09/22 03:30:54;;;;;;;;;;;;;;;;;;5019736;28;19916;-59
2022/09/22 03:33:20;;;;;;;;;;;;;;;;;;5033096;28;20300;-61
2022/09/22 03:35:46;;;;;;;;;;;;;;;;;;5033616;28;19952;-61
2022/09/22 03:38:12;;;;;;;;;;;;;;;;;;5032557;28;19921;-62
2022/09/22 03:40:38;;;;;;;;;;;;;;;;;;5031194;28;19955;-62
2022/09/22 03:43:04;;;;;;;;;;;;;;;;;;5028141;28;20023;-62
2022/09/22 03:45:30;;;;;;;;;;;;;;;;;;5029204;28;19956;-62
2022/09/22 03:47:57;;;;;;;;;;;;;;;;;;5032536;28;19909;-62
2022/09/22 03:50:23;;;;;;;;;;;;;;;;;;5033653;28;19913;-62
2022/09/22 03:52:49;;;;;;;;;;;;;;;;;;5033425;28;20365;-62
2022/09/22 03:55:14;;;;;;;;;;;;;;;;;;5031688;28;19913;-62
2022/09/22 03:57:42;;;;;;;;;;;;;;;;;;5031209;28;19919;-62
2022/09/22 04:00:08;;;;;;;;;;;;;;;;;;5033189;28;19905;-62
2022/09/22 04:02:34;;;;;;;;;;;;;;;;;;5031263;28;19944;-61
2022/09/22 04:05:00;;;;;;;;;;;;;;;;;;5033570;28;20355;-62
2022/09/22 04:07:26;;;;;;;;;;;;;;;;;;5024381;28;19909;-62
2022/09/22 04:09:53;;;;;;;;;;;;;;;;;;5031302;28;19951;-62
2022/09/22 04:12:19;;;;;;;;;;;;;;;;;;5030824;28;19916;-61
2022/09/22 04:14:44;;;;;;;;;;;;;;;;;;5032559;28;19909;-62
2022/09/22 04:17:10;;;;;;;;;;;;;;;;;;5024852;28;19952;-61
2022/09/22 04:19:36;;;;;;;;;;;;;;;;;;5028206;28;19913;-62
2022/09/22 04:22:02;;;;;;;;;;;;;;;;;;5030849;28;19920;-62
2022/09/22 04:24:28;;;;;;;;;;;;;;;;;;5032481;28;19952;-62
2022/09/22 04:26:54;;;;;;;;;;;;;;;;;;5032209;28;19909;-62
2022/09/22 04:29:20;;;;;;;;;;;;;;;;;;5027165;28;19992;-61
2022/09/22 04:31:46;;;;;;;;;;;;;;;;;;5029936;28;19913;-61
2022/09/22 04:34:12;;;;;;;;;;;;;;;;;;5030143;28;20450;-62
2022/09/22 04:36:37;;;;;;;;;;;;;;;;;;5030343;28;19941;-62
2022/09/22 04:39:03;;;;;;;;;;;;;;;;;;5028687;28;19928;-61
2022/09/22 04:41:29;;;;;;;;;;;;;;;;;;5030725;28;19909;-62
2022/09/22 04:43:55;;;;;;;;;;;;;;;;;;5028668;28;19909;-62
2022/09/22 04:46:21;;;;;;;;;;;;;;;;;;5028961;28;20420;-62
2022/09/22 04:48:47;;;;;;;;;;;;;;;;;;5029897;28;19909;-61
2022/09/22 04:51:13;;;;;;;;;;;;;;;;;;5029618;28;19970;-61
2022/09/22 04:53:39;;;;;;;;;;;;;;;;;;5028420;28;19909;-62
2022/09/22 04:56:05;;;;;;;;;;;;;;;;;;5032427;28;19944;-62
2022/09/22 04:58:30;;;;;;;;;;;;;;;;;;5033012;28;19960;-62
2022/09/22 05:00:57;;;;;;;;;;;;;;;;;;5027352;28;20336;-62
2022/09/22 05:03:23;;;;;;;;;;;;;;;;;;5021774;28;19956;-62
2022/09/22 05:05:48;;;;;;;;;;;;;;;;;;5031267;28;19945;-61
2022/09/22 05:08:15;;;;;;;;;;;;;;;;;;5024020;28;19937;-62
2022/09/22 05:10:41;;;;;;;;;;;;;;;;;;5030194;28;19953;-61
2022/09/22 05:13:07;;;;;;;;;;;;;;;;;;5028052;28;19917;-62
2022/09/22 05:15:33;;;;;;;;;;;;;;;;;;5029229;28;19960;-61
2022/09/22 05:17:59;;;;;;;;;;;;;;;;;;5027835;28;20365;-61
2022/09/22 05:20:25;;;;;;;;;;;;;;;;;;5022642;28;20003;-61
2022/09/22 05:22:51;;;;;;;;;;;;;;;;;;5030530;28;20356;-62
2022/09/22 05:25:17;;;;;;;;;;;;;;;;;;5030370;28;19916;-62
2022/09/22 05:27:44;;;;;;;;;;;;;;;;;;5030637;28;19905;-62
2022/09/22 05:30:10;;;;;;;;;;;;;;;;;;5031400;28;20368;-62
2022/09/22 05:32:36;;;;;;;;;;;;;;;;;;5030705;28;19959;-61
2022/09/22 05:35:01;;;;;;;;;;;;;;;;;;5031768;28;19905;-62
2022/09/22 05:37:27;;;;;;;;;;;;;;;;;;5013670;28;19921;-62
2022/09/22 05:39:53;;;;;;;;;;;;;;;;;;5030868;28;19911;-61
2022/09/22 05:42:22;;;;;;;;;;;;;;;;;;5030025;28;20277;-61
2022/09/22 05:44:48;;;;;;;;;;;;;;;;;;5032197;28;19905;-62
2022/09/22 05:47:14;;;;;;;;;;;;;;;;;;5031911;28;19912;-62
2022/09/22 05:49:40;;;;;;;;;;;;;;;;;;5031868;28;19904;-62
2022/09/22 05:52:06;;;;;;;;;;;;;;;;;;5031569;28;19967;-61
2022/09/22 05:54:32;;;;;;;;;;;;;;;;;;5031768;28;20362;-61
2022/09/22 05:56:58;;;;;;;;;;;;;;;;;;5029286;28;19913;-61
2022/09/22 05:59:23;;;;;;;;;;;;;;;;;;5023129;28;19993;-62
2022/09/22 06:01:49;;;;;;;;;;;;;;;;;;5031396;28;20329;-61
2022/09/22 06:04:15;;;;;;;;;;;;;;;;;;5031740;28;19928;-61
2022/09/22 06:06:41;;;;;;;;;;;;;;;;;;5031477;28;19909;-62
2022/09/22 06:09:07;;;;;;;;;;;;;;;;;;5031579;28;20378;-61
2022/09/22 06:11:33;;;;;;;;;;;;;;;;;;5029197;28;20054;-63
2022/09/22 06:13:59;;;;;;;;;;;;;;;;;;5030441;28;19937;-62
2022/09/22 06:16:25;;;;;;;;;;;;;;;;;;5030562;28;20368;-61
2022/09/22 06:18:51;;;;;;;;;;;;;;;;;;5030586;28;19913;-61
2022/09/22 06:21:17;;;;;;;;;;;;;;;;;;5030828;28;19959;-61
2022/09/22 06:23:43;;;;;;;;;;;;;;;;;;5030047;28;19909;-60
2022/09/22 06:26:09;;;;;;;;;;;;;;;;;;5031168;28;20010;-62
2022/09/22 06:28:35;;;;;;;;;;;;;;;;;;5031434;28;19944;-60
2022/09/22 06:31:01;;;;;;;;;;;;;;;;;;5029622;28;19924;-59
2022/09/22 06:33:27;;;;;;;;;;;;;;;;;;5030492;28;19915;-62
2022/09/22 06:35:53;;;;;;;;;;;;;;;;;;5031395;28;20287;-61
2022/09/22 06:38:19;;;;;;;;;;;;;;;;;;5031165;28;19919;-60
2022/09/22 06:40:45;;;;;;;;;;;;;;;;;;5031198;28;19916;-61
2022/09/22 06:43:11;;;;;;;;;;;;;;;;;;5031363;28;20460;-61
2022/09/22 06:45:37;;;;;;;;;;;;;;;;;;5029342;28;19917;-62
2022/09/22 06:48:03;;;;;;;;;;;;;;;;;;5029871;28;20353;-61
2022/09/22 06:50:31;;;;;;;;;;;;;;;;;;5030862;28;20514;-62
2022/09/22 06:52:57;;;;;;;;;;;;;;;;;;5031019;28;19905;-62
2022/09/22 06:55:23;;;;;;;;;;;;;;;;;;5031494;28;19905;-61
2022/09/22 06:57:49;;;;;;;;;;;;;;;;;;5027962;28;19959;-61
2022/09/22 07:00:15;;;;;;;;;;;;;;;;;;5031260;28;20572;-61
2022/09/22 07:02:41;;;;;;;;;;;;;;;;;;5030951;28;19912;-61
2022/09/22 07:05:07;;;;;;;;;;;;;;;;;;5031181;28;19991;-61
2022/09/22 07:07:32;;;;;;;;;;;;;;;;;;5028882;28;19919;-61
2022/09/22 07:09:58;;;;;;;;;;;;;;;;;;5013101;28;19909;-61
2022/09/22 07:12:25;;;;;;;;;;;;;;;;;;5032847;28;20349;-62
2022/09/22 07:14:52;;;;;;;;;;;;;;;;;;5033962;28;20276;-61
2022/09/22 07:17:19;;;;;;;;;;;;;;;;;;5034630;28;19979;-62
2022/09/22 07:19:50;;;;;;;;;;;;;;;;;;5034209;28;20015;-61
2022/09/22 07:22:17;;;;;;;;;;;;;;;;;;5032778;28;19913;-61
2022/09/22 07:24:43;;;;;;;;;;;;;;;;;;5034644;28;20011;-61
2022/09/22 07:27:09;;;;;;;;;;;;;;;;;;5034438;28;20397;-61
2022/09/22 07:29:35;;;;;;;;;;;;;;;;;;5030706;28;19915;-61
2022/09/22 07:32:02;;;;;;;;;;;;;;;;;;5034123;28;19951;-62
2022/09/22 07:34:28;;;;;;;;;;;;;;;;;;5033505;28;19905;-61
2022/09/22 07:36:54;;;;;;;;;;;;;;;;;;5034137;28;19905;-62
2022/09/22 07:39:20;;;;;;;;;;;;;;;;;;5031803;28;19913;-61
2022/09/22 07:41:46;;;;;;;;;;;;;;;;;;5033781;28;19905;-62
2022/09/22 07:46:57;;;;;;;;;;;;;;;;;;5034077;28;19932;-59
2022/09/22 07:49:23;;;;;;;;;;;;;;;;;;5034209;28;20277;-61
2022/09/22 07:51:53;;;;;;;;;;;;;;;;;;5033622;28;19909;-61
2022/09/22 07:54:19;;;;;;;;;;;;;;;;;;5032279;28;20004;-61
2022/09/22 07:56:45;;;;;;;;;;;;;;;;;;5033764;28;20000;-61
2022/09/22 07:59:11;;;;;;;;;;;;;;;;;;5026253;28;19908;-62
2022/09/22 08:01:37;;;;;;;;;;;;;;;;;;5033294;28;19952;-62
2022/09/22 08:04:03;;;;;;;;;;;;;;;;;;5034065;28;19959;-62
2022/09/22 08:06:30;;;;;;;;;;;;;;;;;;5033745;28;19913;-62
2022/09/22 08:08:56;;;;;;;;;;;;;;;;;;5033889;28;20410;-62
2022/09/22 08:11:22;;;;;;;;;;;;;;;;;;5031693;28;19905;-62
2022/09/22 08:13:48;;;;;;;;;;;;;;;;;;5033704;28;19979;-61
2022/09/22 08:16:16;;;;;;;;;;;;;;;;;;5033403;28;19959;-62
2022/09/22 08:18:42;;;;;;;;;;;;;;;;;;5033144;28;20394;-61
2022/09/22 08:21:08;;;;;;;;;;;;;;;;;;5033018;28;19905;-62
2022/09/22 08:23:34;;;;;;;;;;;;;;;;;;5029161;28;19953;-62
2022/09/22 08:25:59;;;;;;;;;;;;;;;;;;5033306;28;19915;-61
2022/09/22 08:28:25;;;;;;;;;;;;;;;;;;5033331;28;19913;-62
2022/09/22 08:30:51;;;;;;;;;;;;;;;;;;5032608;28;20439;-61
2022/09/22 08:33:17;;;;;;;;;;;;;;;;;;5033118;28;19936;-62
2022/09/22 08:35:43;;;;;;;;;;;;;;;;;;5028224;28;20000;-62
2022/09/22 08:38:09;;;;;;;;;;;;;;;;;;5033069;28;19919;-62
2022/09/22 08:40:35;;;;;;;;;;;;;;;;;;5032444;28;19932;-61
2022/09/22 08:43:03;;;;;;;;;;;;;;;;;;5033008;28;19952;-62
2022/09/22 08:45:29;;;;;;;;;;;;;;;;;;5032821;28;20452;-61
2022/09/22 08:53:24;;;;;;;;;;;;;;;;;;5030317;28;20316;-62
2022/09/22 08:55:50;;;;;;;;;;;;;;;;;;5026739;28;19909;-63
2022/09/22 08:58:15;;;;;;;;;;;;;;;;;;5022970;28;20337;-62
2022/09/22 09:00:41;;;;;;;;;;;;;;;;;;5034433;28;19905;-62
2022/09/22 09:03:08;;;;;;;;;;;;;;;;;;5032654;28;19905;-62
2022/09/22 09:05:34;;;;;;;;;;;;;;;;;;5032620;28;19904;-62
2022/09/22 09:08:00;;;;;;;;;;;;;;;;;;5032502;28;20380;-62
2022/09/22 09:10:27;;;;;;;;;;;;;;;;;;5030556;28;20364;-62
2022/09/22 09:12:53;;;;;;;;;;;;;;;;;;5032536;28;19909;-62
2022/09/22 09:15:18;;;;;;;;;;;;;;;;;;5032560;28;20384;-62
2022/09/22 09:17:44;;;;;;;;;;;;;;;;;;5032298;28;20003;-62
2022/09/22 09:20:10;;;;;;;;;;;;;;;;;;5031845;28;19917;-62
2022/09/22 09:22:39;;;;;;;;;;;;;;;;;;5029940;28;19995;-63
2022/09/22 09:25:05;;;;;;;;;;;;;;;;;;5029768;28;19905;-62
2022/09/22 09:27:30;;;;;;;;;;;;;;;;;;5032167;28;19950;-62
2022/09/22 09:29:56;;;;;;;;;;;;;;;;;;5029425;28;19981;-62
2022/09/22 09:32:22;;;;;;;;;;;;;;;;;;5032175;28;19905;-62
2022/09/22 09:34:48;;;;;;;;;;;;;;;;;;5031315;28;19958;-62
2022/09/22 09:37:14;;;;;;;;;;;;;;;;;;5031930;28;20364;-62
2022/09/22 09:39:40;;;;;;;;;;;;;;;;;;5031594;28;19948;-62
2022/09/22 09:42:06;;;;;;;;;;;;;;;;;;5031602;28;19905;-62
2022/09/22 09:44:32;;;;;;;;;;;;;;;;;;5031197;28;19915;-62
2022/09/22 09:46:58;;;;;;;;;;;;;;;;;;5030199;28;19913;-62
2022/09/22 09:49:24;;;;;;;;;;;;;;;;;;5031784;28;20372;-62
2022/09/22 09:51:49;;;;;;;;;;;;;;;;;;5031537;28;20293;-59
2022/09/22 09:54:15;;;;;;;;;;;;;;;;;;5031383;28;19963;-62
2022/09/22 09:56:41;;;;;;;;;;;;;;;;;;5030705;28;19913;-62
2022/09/22 10:01:53;;;;;;;;;;;;;;;;;;5029908;28;20349;-62
2022/09/22 10:04:18;;;;;;;;;;;;;;;;;;5031644;28;19905;-62
2022/09/22 10:06:44;;;;;;;;;;;;;;;;;;5031410;28;20367;-63
2022/09/22 10:09:10;;;;;;;;;;;;;;;;;;5031817;28;19999;-63
2022/09/22 10:11:36;;;;;;;;;;;;;;;;;;5030044;28;20051;-62
2022/09/22 10:14:02;;;;;;;;;;;;;;;;;;5031676;28;20050;-63
2022/09/22 10:16:29;;;;;;;;;;;;;;;;;;5031453;28;19912;-62
2022/09/22 10:18:55;;;;;;;;;;;;;;;;;;5028433;28;19917;-62
2022/09/22 10:21:21;;;;;;;;;;;;;;;;;;5030810;28;19905;-62
2022/09/22 10:23:47;;;;;;;;;;;;;;;;;;5031571;28;19905;-63
2022/09/22 10:26:13;;;;;;;;;;;;;;;;;;5027737;28;19960;-62
2022/09/22 10:28:39;;;;;;;;;;;;;;;;;;5031379;28;19959;-62
2022/09/22 10:31:05;;;;;;;;;;;;;;;;;;5030900;28;19905;-62
2022/09/22 10:33:30;;;;;;;;;;;;;;;;;;5031406;28;19948;-62
2022/09/22 10:35:56;;;;;;;;;;;;;;;;;;5030980;28;20058;-62
2022/09/22 10:38:22;;;;;;;;;;;;;;;;;;5031232;28;20265;-63
2022/09/22 10:40:48;;;;;;;;;;;;;;;;;;5028919;28;19964;-62
2022/09/22 10:43:14;;;;;;;;;;;;;;;;;;5031495;28;19944;-62
2022/09/22 10:45:40;;;;;;;;;;;;;;;;;;5031752;28;19947;-63
2022/09/22 10:48:06;;;;;;;;;;;;;;;;;;5035371;28;19913;-63
2022/09/22 10:50:34;;;;;;;;;;;;;;;;;;5031098;28;19944;-62
2022/09/22 10:53:01;;;;;;;;;;;;;;;;;;5034286;28;20265;-62
2022/09/22 10:55:27;;;;;;;;;;;;;;;;;;5035037;28;19971;-63
2022/09/22 10:57:53;;;;;;;;;;;;;;;;;;5034912;28;19972;-63
2022/09/22 11:00:19;;;;;;;;;;;;;;;;;;5035634;28;19980;-62
2022/09/22 11:02:44;;;;;;;;;;;;;;;;;;5032040;28;20404;-62
2022/09/22 11:05:10;;;;;;;;;;;;;;;;;;5034900;28;19951;-62
2022/09/22 11:13:06;;;;;;;;;;;;;;;;;;5034868;28;19951;-62
2022/09/22 11:15:32;;;;;;;;;;;;;;;;;;5016866;28;19905;-62
2022/09/22 11:17:59;;;;;;;;;;;;;;;;;;5034723;28;20391;-62
2022/09/22 11:20:25;;;;;;;;;;;;;;;;;;5034101;28;19913;-62
2022/09/22 11:22:51;;;;;;;;;;;;;;;;;;5016770;28;19944;-62
2022/09/22 11:25:17;;;;;;;;;;;;;;;;;;5032314;28;19975;-62
2022/09/22 11:27:44;;;;;;;;;;;;;;;;;;5034436;28;19908;-62
2022/09/22 11:30:10;;;;;;;;;;;;;;;;;;5033169;28;19905;-61
2022/09/22 11:32:35;;;;;;;;;;;;;;;;;;5027168;28;20397;-62
2022/09/22 11:35:01;;;;;;;;;;;;;;;;;;5031562;28;19909;-62
2022/09/22 11:37:27;;;;;;;;;;;;;;;;;;5026863;28;20334;-62
2022/09/22 11:39:53;;;;;;;;;;;;;;;;;;5033836;28;19913;-63
2022/09/22 11:42:19;;;;;;;;;;;;;;;;;;5029796;28;20032;-62
2022/09/22 11:44:45;;;;;;;;;;;;;;;;;;5029446;28;19920;-62
2022/09/22 11:47:11;;;;;;;;;;;;;;;;;;5028470;28;19909;-62
2022/09/22 11:49:37;;;;;;;;;;;;;;;;;;5033625;28;20388;-62
2022/09/22 11:52:03;;;;;;;;;;;;;;;;;;5029545;28;19952;-62
2022/09/22 11:54:29;;;;;;;;;;;;;;;;;;5033055;28;19913;-63
2022/09/22 11:56:54;;;;;;;;;;;;;;;;;;5030173;28;19916;-63
2022/09/22 11:59:20;;;;;;;;;;;;;;;;;;5024619;28;19909;-63
2022/09/22 12:01:46;;;;;;;;;;;;;;;;;;5029046;28;19959;-63
2022/09/22 12:04:12;;;;;;;;;;;;;;;;;;5031894;28;19980;-62
2022/09/22 12:06:40;;;;;;;;;;;;;;;;;;5022879;28;20374;-61
2022/09/22 12:09:06;;;;;;;;;;;;;;;;;;5033296;28;19964;-64
2022/09/22 12:11:34;;;;;;;;;;;;;;;;;;5030766;28;20006;-63
2022/09/22 12:14:00;;;;;;;;;;;;;;;;;;5032515;28;19916;-66
2022/09/22 12:16:26;;;;;;;;;;;;;;;;;;5031302;28;19940;-65
2022/09/22 12:18:52;;;;;;;;;;;;;;;;;;5032221;28;19956;-65
2022/09/22 12:21:18;;;;;;;;;;;;;;;;;;5032027;28;19909;-65
2022/09/22 12:23:44;;;;;;;;;;;;;;;;;;5032312;28;19967;-65
2022/09/22 12:26:10;;;;;;;;;;;;;;;;;;5031460;28;20233;-65
2022/09/22 12:28:35;;;;;;;;;;;;;;;;;;5032814;28;19951;-65
2022/09/22 12:31:03;;;;;;;;;;;;;;;;;;5030808;28;20700;-65
2022/09/22 12:33:29;;;;;;;;;;;;;;;;;;5028896;28;19956;-65
2022/09/22 12:35:55;;;;;;;;;;;;;;;;;;5029078;28;19975;-65
2022/09/22 12:38:21;;;;;;;;;;;;;;;;;;5031461;28;19921;-65
2022/09/22 12:40:47;;;;;;;;;;;;;;;;;;5028908;28;19959;-64
2022/09/22 12:43:13;;;;;;;;;;;;;;;;;;5021499;28;19913;-65
2022/09/22 12:45:38;;;;;;;;;;;;;;;;;;5029791;28;19962;-65
2022/09/22 12:48:04;;;;;;;;;;;;;;;;;;5030637;28;19956;-63
2022/09/22 12:50:30;;;;;;;;;;;;;;;;;;5029705;28;20372;-65
2022/09/22 12:52:56;;;;;;;;;;;;;;;;;;5031174;28;19963;-65
2022/09/22 12:55:22;;;;;;;;;;;;;;;;;;5020751;28;20012;-65
2022/09/22 12:57:49;;;;;;;;;;;;;;;;;;5027085;28;19956;-64
2022/09/22 13:00:16;;;;;;;;;;;;;;;;;;5010176;28;20006;-65
2022/09/22 13:02:42;;;;;;;;;;;;;;;;;;5024509;28;20019;-65
2022/09/22 13:05:08;;;;;;;;;;;;;;;;;;5023814;28;19913;-66
2022/09/22 13:07:34;;;;;;;;;;;;;;;;;;5029062;28;20010;-64
2022/09/22 13:10:00;;;;;;;;;;;;;;;;;;5030556;28;19999;-64
2022/09/22 13:12:26;;;;;;;;;;;;;;;;;;5028148;28;20076;-63
2022/09/22 13:14:52;;;;;;;;;;;;;;;;;;5030070;28;19944;-63
2022/09/22 13:17:18;;;;;;;;;;;;;;;;;;5023461;28;19971;-64
2022/09/22 13:19:44;;;;;;;;;;;;;;;;;;5022974;28;20351;-64
2022/09/22 13:22:10;;;;;;;;;;;;;;;;;;5031162;28;19905;-64
2022/09/22 13:24:36;;;;;;;;;;;;;;;;;;5032223;28;19905;-64
2022/09/22 13:27:02;;;;;;;;;;;;;;;;;;5022707;28;19979;-63
2022/09/22 13:29:28;;;;;;;;;;;;;;;;;;5024400;28;19917;-64
2022/09/22 13:31:56;;;;;;;;;;;;;;;;;;5017041;28;19925;-64
2022/09/22 13:34:22;;;;;;;;;;;;;;;;;;5031880;28;19962;-64
2022/09/22 13:36:48;;;;;;;;;;;;;;;;;;5030814;28;20378;-65
2022/09/22 13:39:14;;;;;;;;;;;;;;;;;;5022910;28;19920;-65
2022/09/22 13:41:40;;;;;;;;;;;;;;;;;;5026006;28;20011;-64
2022/09/22 13:44:08;;;;;;;;;;;;;;;;;;5031028;28;20296;-64
2022/09/22 13:46:34;;;;;;;;;;;;;;;;;;5027382;28;20051;-65
2022/09/22 13:49:00;;;;;;;;;;;;;;;;;;5013409;28;20024;-65
2022/09/22 13:51:26;;;;;;;;;;;;;;;;;;5031380;28;19991;-65
2022/09/22 13:53:52;;;;;;;;;;;;;;;;;;5030917;28;19978;-64
2022/09/22 13:56:18;;;;;;;;;;;;;;;;;;5025892;28;19987;-64
2022/09/22 13:58:44;;;;;;;;;;;;;;;;;;5019254;28;19913;-63
2022/09/22 14:01:10;;;;;;;;;;;;;;;;;;5027527;28;20019;-63
2022/09/22 14:03:37;;;;;;;;;;;;;;;;;;5012152;28;19916;-63
2022/09/22 14:06:02;;;;;;;;;;;;;;;;;;5023768;28;19913;-64
2022/09/22 14:08:28;;;;;;;;;;;;;;;;;;5025197;28;20376;-64
2022/09/22 14:10:54;;;;;;;;;;;;;;;;;;5025797;28;19952;-64
2022/09/22 14:13:20;;;;;;;;;;;;;;;;;;5031539;28;19912;-64
2022/09/22 14:15:46;;;;;;;;;;;;;;;;;;5026248;28;20295;-63
2022/09/22 14:18:12;;;;;;;;;;;;;;;;;;5030408;28;20404;-63
2022/09/22 14:20:39;;;;;;;;;;;;;;;;;;5032833;28;20058;-63
2022/09/22 14:23:04;;;;;;;;;;;;;;;;;;5032793;28;19915;-63
2022/09/22 14:25:30;;;;;;;;;;;;;;;;;;5036286;28;19988;-63
2022/09/22 14:27:58;;;;;;;;;;;;;;;;;;5037379;28;20461;-63
2022/09/22 14:30:27;;;;;;;;;;;;;;;;;;5036455;28;20395;-64
2022/09/22 14:32:53;;;;;;;;;;;;;;;;;;5027075;28;20047;-62
2022/09/22 14:35:19;;;;;;;;;;;;;;;;;;5032977;28;20008;-63
2022/09/22 14:37:45;;;;;;;;;;;;;;;;;;5029303;28;20287;-62
2022/09/22 14:40:11;;;;;;;;;;;;;;;;;;5028998;28;19965;-63
2022/09/22 14:42:37;;;;;;;;;;;;;;;;;;5029926;28;19994;-64
2022/09/22 14:45:03;;;;;;;;;;;;;;;;;;5028150;28;19909;-64
2022/09/22 14:47:29;;;;;;;;;;;;;;;;;;5029556;28;19952;-63
2022/09/22 14:49:55;;;;;;;;;;;;;;;;;;5028367;28;20399;-64
2022/09/22 14:52:23;;;;;;;;;;;;;;;;;;5027758;28;19909;-64
2022/09/22 14:54:49;;;;;;;;;;;;;;;;;;5030689;28;20273;-66
2022/09/22 14:57:16;;;;;;;;;;;;;;;;;;5030838;28;20051;-64
2022/09/22 15:02:34;;;;;;;;;;;;;;;;;;5029964;28;20022;-65
2022/09/22 15:05:03;;;;;;;;;;;;;;;;;;5026958;28;19913;-65
2022/09/22 15:07:29;;;;;;;;;;;;;;;;;;5030228;28;19913;-66
2022/09/22 15:09:55;;;;;;;;;;;;;;;;;;5033455;28;20027;-64
2022/09/22 15:12:21;;;;;;;;;;;;;;;;;;5035549;28;19913;-66
2022/09/22 15:14:47;;;;;;;;;;;;;;;;;;5035079;28;19909;-65
2022/09/22 15:19:58;;;;;;;;;;;;;;;;;;5033380;28;20020;-64
2022/09/22 15:22:26;;;;;;;;;;;;;;;;;;5034106;28;19917;-65
2022/09/22 15:24:52;;;;;;;;;;;;;;;;;;5033137;28;19941;-65
2022/09/22 15:27:18;;;;;;;;;;;;;;;;;;5019096;28;19963;-65
2022/09/22 15:29:44;;;;;;;;;;;;;;;;;;5036199;28;19905;-65
2022/09/22 15:32:10;;;;;;;;;;;;;;;;;;5030766;28;20274;-64
2022/09/22 15:34:41;;;;;;;;;;;;;;;;;;5024053;28;19952;-65
2022/09/22 15:37:08;;;;;;;;;;;;;;;;;;5029402;28;19905;-64
2022/09/22 15:39:34;;;;;;;;;;;;;;;;;;5015776;28;19915;-65
2022/09/22 15:42:00;;;;;;;;;;;;;;;;;;5034050;28;19905;-66
2022/09/22 15:44:26;;;;;;;;;;;;;;;;;;5034420;28;19905;-65
2022/09/22 15:46:52;;;;;;;;;;;;;;;;;;5027792;28;20004;-64
2022/09/22 15:49:21;;;;;;;;;;;;;;;;;;5024873;28;20364;-64
2022/09/22 15:51:48;;;;;;;;;;;;;;;;;;5015773;28;19959;-65
2022/09/22 15:54:14;;;;;;;;;;;;;;;;;;5034020;28;19905;-65
2022/09/22 15:56:40;;;;;;;;;;;;;;;;;;5034103;28;20353;-65
2022/09/22 15:59:07;;;;;;;;;;;;;;;;;;5033682;28;20284;-65
2022/09/22 16:01:33;;;;;;;;;;;;;;;;;;5033602;28;19912;-65
2022/09/22 16:03:59;;;;;;;;;;;;;;;;;;5033813;28;19956;-65
2022/09/22 16:06:25;;;;;;;;;;;;;;;;;;5032233;28;20003;-65
2022/09/22 16:08:51;;;;;;;;;;;;;;;;;;5033635;28;19997;-65
2022/09/22 16:11:21;;;;;;;;;;;;;;;;;;5033360;28;20361;-65
2022/09/22 16:13:47;;;;;;;;;;;;;;;;;;5031089;28;19963;-65
2022/09/22 16:16:13;;;;;;;;;;;;;;;;;;5033668;28;19904;-64
2022/09/22 16:18:40;;;;;;;;;;;;;;;;;;5033030;28;19987;-64
2022/09/22 16:21:06;;;;;;;;;;;;;;;;;;5031485;28;19913;-64
2022/09/22 16:23:32;;;;;;;;;;;;;;;;;;5033353;28;19943;-64
2022/09/22 16:25:58;;;;;;;;;;;;;;;;;;5032135;28;20296;-64
2022/09/22 16:28:24;;;;;;;;;;;;;;;;;;5033460;28;19942;-65
2022/09/22 16:30:50;;;;;;;;;;;;;;;;;;5030318;28;19952;-64
2022/09/22 16:33:16;;;;;;;;;;;;;;;;;;5032766;28;19909;-64
2022/09/22 16:35:42;;;;;;;;;;;;;;;;;;5032638;28;19947;-64
2022/09/22 16:38:08;;;;;;;;;;;;;;;;;;5032099;28;19920;-64
2022/09/22 16:40:34;;;;;;;;;;;;;;;;;;5032567;28;19917;-64
2022/09/22 16:43:00;;;;;;;;;;;;;;;;;;5033055;28;19931;-64
2022/09/22 16:48:11;;;;;;;;;;;;;;;;;;5030926;28;19920;-66
2022/09/22 16:50:37;;;;;;;;;;;;;;;;;;5032041;28;19944;-66
2022/09/22 16:53:02;;;;;;;;;;;;;;;;;;5033030;28;19905;-64
2022/09/22 16:55:28;;;;;;;;;;;;;;;;;;5031453;28;19998;-64
2022/09/22 16:57:56;;;;;;;;;;;;;;;;;;5032019;28;20448;-64
2022/09/22 17:00:22;;;;;;;;;;;;;;;;;;5023980;28;19913;-64
2022/09/22 17:02:48;;;;;;;;;;;;;;;;;;5032109;28;19959;-64